sensor_id;sensor_type;location;lat;lon;timestamp;P1;durP1;ratioP1;P2;durP2;ratioP2
35646;SDS011;28680;45.642;13.756;2022-09-16T00:00:27;35.47;;;5.45;;
35646;SDS011;28680;45.642;13.756;2022-09-16T00:02:54;30.02;;;6.18;;
35646;SDS011;28680;45.642;13.756;2022-09-16T00:05:21;29.52;;;5.90;;
35646;SDS011;28680;45.642;13.756;2022-09-16T00:07:47;25.20;;;5.85;;
35646;SDS011;28680;45.642;13.756;2022-09-16T00:10:13;31.15;;;6.22;;
35646;SDS011;28680;45.642;13.756;2022-09-16T00:12:40;29.65;;;4.75;;
35646;SDS011;28680;45.642;13.756;2022-09-16T00:15:06;30.45;;;5.03;;
35646;SDS011;28680;45.642;13.756;2022-09-16T00:17:34;21.55;;;4.72;;
35646;SDS011;28680;45.642;13.756;2022-09-16T00:20:02;27.55;;;5.05;;
35646;SDS011;28680;45.642;13.756;2022-09-16T00:22:28;26.40;;;5.28;;
35646;SDS011;28680;45.642;13.756;2022-09-16T00:24:55;26.98;;;5.13;;
35646;SDS011;28680;45.642;13.756;2022-09-16T00:27:20;27.00;;;5.88;;
35646;SDS011;28680;45.642;13.756;2022-09-16T00:29:46;28.55;;;4.90;;
35646;SDS011;28680;45.642;13.756;2022-09-16T00:32:12;31.50;;;5.32;;
35646;SDS011;28680;45.642;13.756;2022-09-16T00:34:38;19.52;;;4.00;;
35646;SDS011;28680;45.642;13.756;2022-09-16T00:37:04;36.15;;;5.25;;
35646;SDS011;28680;45.642;13.756;2022-09-16T00:39:32;25.60;;;4.93;;
35646;SDS011;28680;45.642;13.756;2022-09-16T00:42:00;26.13;;;5.38;;
35646;SDS011;28680;45.642;13.756;2022-09-16T00:47:34;24.00;;;4.40;;
35646;SDS011;28680;45.642;13.756;2022-09-16T00:50:14;22.85;;;4.18;;
35646;SDS011;28680;45.642;13.756;2022-09-16T00:52:53;28.40;;;4.75;;
35646;SDS011;28680;45.642;13.756;2022-09-16T00:55:22;22.05;;;4.07;;
35646;SDS011;28680;45.642;13.756;2022-09-16T00:57:53;26.55;;;5.40;;
35646;SDS011;28680;45.642;13.756;2022-09-16T01:00:28;28.45;;;5.20;;
35646;SDS011;28680;45.642;13.756;2022-09-16T01:02:54;21.60;;;3.70;;
35646;SDS011;28680;45.642;13.756;2022-09-16T01:05:21;27.17;;;4.55;;
35646;SDS011;28680;45.642;13.756;2022-09-16T01:07:50;25.23;;;4.53;;
35646;SDS011;28680;45.642;13.756;2022-09-16T01:10:23;22.92;;;4.13;;
35646;SDS011;28680;45.642;13.756;2022-09-16T01:12:51;22.25;;;4.40;;
35646;SDS011;28680;45.642;13.756;2022-09-16T01:15:22;25.63;;;4.20;;
35646;SDS011;28680;45.642;13.756;2022-09-16T01:18:29;23.42;;;4.15;;
35646;SDS011;28680;45.642;13.756;2022-09-16T01:21:42;23.90;;;4.55;;
35646;SDS011;28680;45.642;13.756;2022-09-16T01:27:17;22.02;;;3.92;;
35646;SDS011;28680;45.642;13.756;2022-09-16T01:35:44;23.80;;;4.57;;
35646;SDS011;28680;45.642;13.756;2022-09-16T01:45:01;22.60;;;4.93;;
35646;SDS011;28680;45.642;13.756;2022-09-16T01:50:29;23.70;;;3.88;;
35646;SDS011;28680;45.642;13.756;2022-09-16T01:55:45;28.42;;;4.30;;
35646;SDS011;28680;45.642;13.756;2022-09-16T01:58:25;26.63;;;4.40;;
35646;SDS011;28680;45.642;13.756;2022-09-16T02:01:05;25.52;;;4.40;;
35646;SDS011;28680;45.642;13.756;2022-09-16T02:03:41;18.77;;;3.50;;
35646;SDS011;28680;45.642;13.756;2022-09-16T02:06:14;20.80;;;4.18;;
35646;SDS011;28680;45.642;13.756;2022-09-16T02:08:54;21.45;;;4.18;;
35646;SDS011;28680;45.642;13.756;2022-09-16T02:11:26;34.30;;;5.85;;
35646;SDS011;28680;45.642;13.756;2022-09-16T02:13:54;20.13;;;4.43;;
35646;SDS011;28680;45.642;13.756;2022-09-16T02:16:54;27.88;;;4.35;;
35646;SDS011;28680;45.642;13.756;2022-09-16T02:19:30;30.55;;;4.45;;
35646;SDS011;28680;45.642;13.756;2022-09-16T02:22:28;23.05;;;4.35;;
35646;SDS011;28680;45.642;13.756;2022-09-16T02:25:02;23.58;;;4.25;;
35646;SDS011;28680;45.642;13.756;2022-09-16T02:27:32;27.17;;;5.47;;
35646;SDS011;28680;45.642;13.756;2022-09-16T02:30:04;26.33;;;4.85;;
35646;SDS011;28680;45.642;13.756;2022-09-16T02:32:34;19.90;;;4.25;;
35646;SDS011;28680;45.642;13.756;2022-09-16T02:35:06;23.45;;;4.07;;
35646;SDS011;28680;45.642;13.756;2022-09-16T02:40:57;23.10;;;4.75;;
35646;SDS011;28680;45.642;13.756;2022-09-16T02:43:15;26.58;;;5.00;;
35646;SDS011;28680;45.642;13.756;2022-09-16T02:45:44;19.02;;;4.30;;
35646;SDS011;28680;45.642;13.756;2022-09-16T02:48:18;27.52;;;5.28;;
35646;SDS011;28680;45.642;13.756;2022-09-16T02:51:30;20.45;;;4.25;;
35646;SDS011;28680;45.642;13.756;2022-09-16T02:56:44;25.60;;;3.97;;
35646;SDS011;28680;45.642;13.756;2022-09-16T02:59:10;22.40;;;4.05;;
35646;SDS011;28680;45.642;13.756;2022-09-16T03:01:41;22.67;;;4.53;;
35646;SDS011;28680;45.642;13.756;2022-09-16T03:04:11;21.83;;;4.40;;
35646;SDS011;28680;45.642;13.756;2022-09-16T03:06:40;27.58;;;4.40;;
35646;SDS011;28680;45.642;13.756;2022-09-16T03:09:07;22.75;;;4.63;;
35646;SDS011;28680;45.642;13.756;2022-09-16T03:27:57;18.77;;;4.10;;
35646;SDS011;28680;45.642;13.756;2022-09-16T03:30:37;16.80;;;4.57;;
35646;SDS011;28680;45.642;13.756;2022-09-16T03:33:33;20.33;;;4.30;;
35646;SDS011;28680;45.642;13.756;2022-09-16T03:36:11;17.55;;;3.92;;
35646;SDS011;28680;45.642;13.756;2022-09-16T03:38:40;24.42;;;4.18;;
35646;SDS011;28680;45.642;13.756;2022-09-16T03:41:07;17.05;;;4.25;;
35646;SDS011;28680;45.642;13.756;2022-09-16T03:43:34;20.02;;;4.35;;
35646;SDS011;28680;45.642;13.756;2022-09-16T03:46:00;18.75;;;3.85;;
35646;SDS011;28680;45.642;13.756;2022-09-16T03:48:26;17.00;;;4.07;;
35646;SDS011;28680;45.642;13.756;2022-09-16T03:50:52;16.02;;;4.43;;
35646;SDS011;28680;45.642;13.756;2022-09-16T03:53:18;24.63;;;4.70;;
35646;SDS011;28680;45.642;13.756;2022-09-16T03:55:46;21.05;;;4.45;;
35646;SDS011;28680;45.642;13.756;2022-09-16T03:58:14;19.30;;;4.32;;
35646;SDS011;28680;45.642;13.756;2022-09-16T04:00:40;18.23;;;4.15;;
35646;SDS011;28680;45.642;13.756;2022-09-16T04:03:05;22.70;;;4.97;;
35646;SDS011;28680;45.642;13.756;2022-09-16T04:05:31;21.40;;;4.55;;
35646;SDS011;28680;45.642;13.756;2022-09-16T04:07:57;23.75;;;4.25;;
35646;SDS011;28680;45.642;13.756;2022-09-16T04:10:23;20.00;;;4.90;;
35646;SDS011;28680;45.642;13.756;2022-09-16T04:12:49;22.17;;;4.28;;
35646;SDS011;28680;45.642;13.756;2022-09-16T04:15:15;19.52;;;4.50;;
35646;SDS011;28680;45.642;13.756;2022-09-16T04:17:41;19.20;;;4.20;;
35646;SDS011;28680;45.642;13.756;2022-09-16T04:20:07;18.52;;;4.18;;
35646;SDS011;28680;45.642;13.756;2022-09-16T04:22:33;20.05;;;4.03;;
35646;SDS011;28680;45.642;13.756;2022-09-16T04:24:59;19.90;;;4.50;;
35646;SDS011;28680;45.642;13.756;2022-09-16T04:27:25;21.05;;;4.68;;
35646;SDS011;28680;45.642;13.756;2022-09-16T04:29:51;22.77;;;3.88;;
35646;SDS011;28680;45.642;13.756;2022-09-16T04:32:17;22.17;;;4.47;;
35646;SDS011;28680;45.642;13.756;2022-09-16T04:34:42;21.77;;;4.40;;
35646;SDS011;28680;45.642;13.756;2022-09-16T04:37:09;25.17;;;4.20;;
35646;SDS011;28680;45.642;13.756;2022-09-16T04:39:35;24.50;;;4.80;;
35646;SDS011;28680;45.642;13.756;2022-09-16T04:42:01;23.67;;;4.93;;
35646;SDS011;28680;45.642;13.756;2022-09-16T04:44:29;20.38;;;4.18;;
35646;SDS011;28680;45.642;13.756;2022-09-16T04:46:55;20.13;;;4.57;;
35646;SDS011;28680;45.642;13.756;2022-09-16T04:49:21;23.52;;;4.28;;
35646;SDS011;28680;45.642;13.756;2022-09-16T04:51:47;17.80;;;4.30;;
35646;SDS011;28680;45.642;13.756;2022-09-16T04:54:14;19.48;;;4.10;;
35646;SDS011;28680;45.642;13.756;2022-09-16T04:56:40;27.15;;;4.88;;
35646;SDS011;28680;45.642;13.756;2022-09-16T04:59:06;19.10;;;4.05;;
35646;SDS011;28680;45.642;13.756;2022-09-16T05:01:35;30.60;;;4.97;;
35646;SDS011;28680;45.642;13.756;2022-09-16T05:04:03;20.75;;;4.47;;
35646;SDS011;28680;45.642;13.756;2022-09-16T05:06:32;25.60;;;4.90;;
35646;SDS011;28680;45.642;13.756;2022-09-16T05:09:02;20.30;;;4.57;;
35646;SDS011;28680;45.642;13.756;2022-09-16T05:11:29;23.58;;;5.07;;
35646;SDS011;28680;45.642;13.756;2022-09-16T05:13:58;20.80;;;4.35;;
35646;SDS011;28680;45.642;13.756;2022-09-16T05:16:26;20.88;;;4.65;;
35646;SDS011;28680;45.642;13.756;2022-09-16T05:18:54;24.48;;;4.07;;
35646;SDS011;28680;45.642;13.756;2022-09-16T05:21:22;24.00;;;5.22;;
35646;SDS011;28680;45.642;13.756;2022-09-16T05:23:50;26.80;;;4.97;;
35646;SDS011;28680;45.642;13.756;2022-09-16T05:26:25;24.70;;;4.63;;
35646;SDS011;28680;45.642;13.756;2022-09-16T05:28:53;23.35;;;4.60;;
35646;SDS011;28680;45.642;13.756;2022-09-16T05:31:20;23.65;;;5.40;;
35646;SDS011;28680;45.642;13.756;2022-09-16T05:36:35;26.77;;;5.25;;
35646;SDS011;28680;45.642;13.756;2022-09-16T05:39:05;23.23;;;4.82;;
35646;SDS011;28680;45.642;13.756;2022-09-16T05:41:31;29.77;;;4.80;;
35646;SDS011;28680;45.642;13.756;2022-09-16T05:43:58;27.38;;;4.40;;
35646;SDS011;28680;45.642;13.756;2022-09-16T05:46:24;21.92;;;4.82;;
35646;SDS011;28680;45.642;13.756;2022-09-16T05:48:51;23.88;;;4.82;;
35646;SDS011;28680;45.642;13.756;2022-09-16T05:51:18;30.38;;;5.20;;
35646;SDS011;28680;45.642;13.756;2022-09-16T05:53:47;29.98;;;5.03;;
35646;SDS011;28680;45.642;13.756;2022-09-16T05:56:23;20.55;;;4.78;;
35646;SDS011;28680;45.642;13.756;2022-09-16T05:58:58;25.20;;;5.10;;
35646;SDS011;28680;45.642;13.756;2022-09-16T06:03:56;30.10;;;5.55;;
35646;SDS011;28680;45.642;13.756;2022-09-16T06:06:30;26.73;;;5.25;;
35646;SDS011;28680;45.642;13.756;2022-09-16T06:11:45;22.92;;;4.30;;
35646;SDS011;28680;45.642;13.756;2022-09-16T06:14:14;26.00;;;5.07;;
35646;SDS011;28680;45.642;13.756;2022-09-16T06:16:41;28.27;;;5.00;;
35646;SDS011;28680;45.642;13.756;2022-09-16T06:19:08;29.23;;;5.90;;
35646;SDS011;28680;45.642;13.756;2022-09-16T06:21:38;27.55;;;4.50;;
35646;SDS011;28680;45.642;13.756;2022-09-16T06:24:05;27.35;;;5.07;;
35646;SDS011;28680;45.642;13.756;2022-09-16T06:26:35;25.67;;;5.07;;
35646;SDS011;28680;45.642;13.756;2022-09-16T06:29:04;27.10;;;4.88;;
35646;SDS011;28680;45.642;13.756;2022-09-16T06:31:31;25.90;;;5.22;;
35646;SDS011;28680;45.642;13.756;2022-09-16T06:33:58;26.42;;;4.70;;
35646;SDS011;28680;45.642;13.756;2022-09-16T06:36:25;26.27;;;4.75;;
35646;SDS011;28680;45.642;13.756;2022-09-16T06:39:12;29.05;;;4.78;;
35646;SDS011;28680;45.642;13.756;2022-09-16T06:41:40;24.38;;;4.47;;
35646;SDS011;28680;45.642;13.756;2022-09-16T06:44:06;22.75;;;4.75;;
35646;SDS011;28680;45.642;13.756;2022-09-16T06:46:32;25.65;;;4.03;;
35646;SDS011;28680;45.642;13.756;2022-09-16T06:48:57;28.35;;;4.57;;
35646;SDS011;28680;45.642;13.756;2022-09-16T06:51:28;23.10;;;4.97;;
35646;SDS011;28680;45.642;13.756;2022-09-16T06:53:58;21.10;;;4.22;;
35646;SDS011;28680;45.642;13.756;2022-09-16T06:56:36;34.00;;;5.60;;
35646;SDS011;28680;45.642;13.756;2022-09-16T06:59:09;21.15;;;4.50;;
35646;SDS011;28680;45.642;13.756;2022-09-16T07:01:38;25.08;;;4.95;;
35646;SDS011;28680;45.642;13.756;2022-09-16T07:04:06;29.23;;;5.25;;
35646;SDS011;28680;45.642;13.756;2022-09-16T07:06:35;25.65;;;5.63;;
35646;SDS011;28680;45.642;13.756;2022-09-16T07:09:02;20.73;;;4.20;;
35646;SDS011;28680;45.642;13.756;2022-09-16T07:11:28;25.45;;;5.18;;
35646;SDS011;28680;45.642;13.756;2022-09-16T07:13:54;22.15;;;4.32;;
35646;SDS011;28680;45.642;13.756;2022-09-16T07:16:23;23.77;;;5.00;;
35646;SDS011;28680;45.642;13.756;2022-09-16T07:18:54;24.13;;;4.20;;
35646;SDS011;28680;45.642;13.756;2022-09-16T07:21:23;17.38;;;3.95;;
35646;SDS011;28680;45.642;13.756;2022-09-16T07:23:55;25.60;;;3.35;;
35646;SDS011;28680;45.642;13.756;2022-09-16T07:26:28;22.80;;;4.07;;
35646;SDS011;28680;45.642;13.756;2022-09-16T07:29:00;21.13;;;3.60;;
35646;SDS011;28680;45.642;13.756;2022-09-16T07:31:29;16.98;;;4.15;;
35646;SDS011;28680;45.642;13.756;2022-09-16T07:33:59;15.55;;;3.25;;
35646;SDS011;28680;45.642;13.756;2022-09-16T07:39:25;16.00;;;3.72;;
35646;SDS011;28680;45.642;13.756;2022-09-16T07:42:28;20.70;;;4.10;;
35646;SDS011;28680;45.642;13.756;2022-09-16T07:44:54;18.00;;;3.05;;
35646;SDS011;28680;45.642;13.756;2022-09-16T07:47:20;17.30;;;3.55;;
35646;SDS011;28680;45.642;13.756;2022-09-16T07:49:53;25.45;;;4.07;;
35646;SDS011;28680;45.642;13.756;2022-09-16T07:52:21;19.90;;;3.78;;
35646;SDS011;28680;45.642;13.756;2022-09-16T07:54:49;19.85;;;4.03;;
35646;SDS011;28680;45.642;13.756;2022-09-16T07:57:23;18.23;;;3.58;;
35646;SDS011;28680;45.642;13.756;2022-09-16T07:59:49;15.63;;;3.88;;
35646;SDS011;28680;45.642;13.756;2022-09-16T08:02:15;15.38;;;3.15;;
35646;SDS011;28680;45.642;13.756;2022-09-16T08:04:41;18.98;;;3.80;;
35646;SDS011;28680;45.642;13.756;2022-09-16T08:07:07;21.60;;;3.75;;
35646;SDS011;28680;45.642;13.756;2022-09-16T08:09:33;13.60;;;3.17;;
35646;SDS011;28680;45.642;13.756;2022-09-16T08:12:00;19.17;;;4.28;;
35646;SDS011;28680;45.642;13.756;2022-09-16T08:14:28;13.00;;;3.75;;
35646;SDS011;28680;45.642;13.756;2022-09-16T08:16:54;14.88;;;3.65;;
35646;SDS011;28680;45.642;13.756;2022-09-16T08:19:21;12.55;;;3.03;;
35646;SDS011;28680;45.642;13.756;2022-09-16T08:21:47;11.73;;;3.20;;
35646;SDS011;28680;45.642;13.756;2022-09-16T08:24:13;15.00;;;3.28;;
35646;SDS011;28680;45.642;13.756;2022-09-16T08:26:40;13.93;;;3.22;;
35646;SDS011;28680;45.642;13.756;2022-09-16T08:29:06;7.10;;;2.70;;
35646;SDS011;28680;45.642;13.756;2022-09-16T08:31:32;8.90;;;2.08;;
35646;SDS011;28680;45.642;13.756;2022-09-16T08:33:58;8.25;;;2.30;;
35646;SDS011;28680;45.642;13.756;2022-09-16T08:36:24;7.55;;;2.20;;
35646;SDS011;28680;45.642;13.756;2022-09-16T08:38:51;9.80;;;2.28;;
35646;SDS011;28680;45.642;13.756;2022-09-16T08:41:27;8.75;;;2.22;;
35646;SDS011;28680;45.642;13.756;2022-09-16T08:44:48;7.97;;;1.90;;
35646;SDS011;28680;45.642;13.756;2022-09-16T08:50:37;9.18;;;1.95;;
35646;SDS011;28680;45.642;13.756;2022-09-16T08:53:31;10.20;;;2.22;;
35646;SDS011;28680;45.642;13.756;2022-09-16T08:56:12;6.53;;;1.60;;
35646;SDS011;28680;45.642;13.756;2022-09-16T08:58:43;7.93;;;1.90;;
35646;SDS011;28680;45.642;13.756;2022-09-16T09:03:47;10.30;;;2.58;;
35646;SDS011;28680;45.642;13.756;2022-09-16T09:06:18;12.98;;;2.75;;
35646;SDS011;28680;45.642;13.756;2022-09-16T09:30:55;4.05;;;1.20;;
35646;SDS011;28680;45.642;13.756;2022-09-16T09:40:15;4.13;;;1.63;;
35646;SDS011;28680;45.642;13.756;2022-09-16T09:45:57;3.95;;;1.25;;
35646;SDS011;28680;45.642;13.756;2022-09-16T09:51:48;5.68;;;1.42;;
35646;SDS011;28680;45.642;13.756;2022-09-16T09:54:35;6.93;;;1.50;;
35646;SDS011;28680;45.642;13.756;2022-09-16T09:57:09;6.13;;;1.52;;
35646;SDS011;28680;45.642;13.756;2022-09-16T10:02:50;4.70;;;1.13;;
35646;SDS011;28680;45.642;13.756;2022-09-16T10:05:21;4.95;;;1.58;;
35646;SDS011;28680;45.642;13.756;2022-09-16T10:08:02;4.53;;;1.42;;
35646;SDS011;28680;45.642;13.756;2022-09-16T10:10:43;2.72;;;1.20;;
35646;SDS011;28680;45.642;13.756;2022-09-16T10:13:18;6.18;;;1.63;;
35646;SDS011;28680;45.642;13.756;2022-09-16T10:15:46;5.97;;;1.52;;
35646;SDS011;28680;45.642;13.756;2022-09-16T10:18:24;15.85;;;3.97;;
35646;SDS011;28680;45.642;13.756;2022-09-16T10:23:29;2.97;;;1.30;;
35646;SDS011;28680;45.642;13.756;2022-09-16T10:29:31;6.18;;;1.55;;
35646;SDS011;28680;45.642;13.756;2022-09-16T10:31:47;3.97;;;1.52;;
35646;SDS011;28680;45.642;13.756;2022-09-16T10:34:25;2.63;;;1.35;;
35646;SDS011;28680;45.642;13.756;2022-09-16T10:39:53;2.63;;;1.00;;
35646;SDS011;28680;45.642;13.756;2022-09-16T10:42:38;2.50;;;0.90;;
35646;SDS011;28680;45.642;13.756;2022-09-16T10:45:13;2.03;;;0.70;;
35646;SDS011;28680;45.642;13.756;2022-09-16T10:48:04;3.17;;;1.10;;
35646;SDS011;28680;45.642;13.756;2022-09-16T10:50:58;1.80;;;0.60;;
35646;SDS011;28680;45.642;13.756;2022-09-16T10:53:49;3.38;;;1.00;;
35646;SDS011;28680;45.642;13.756;2022-09-16T10:56:48;1.92;;;0.73;;
35646;SDS011;28680;45.642;13.756;2022-09-16T10:59:28;3.53;;;1.00;;
35646;SDS011;28680;45.642;13.756;2022-09-16T11:41:34;0.90;;;0.68;;
35646;SDS011;28680;45.642;13.756;2022-09-16T11:47:26;2.38;;;1.00;;
35646;SDS011;28680;45.642;13.756;2022-09-16T11:53:29;2.25;;;0.80;;
35646;SDS011;28680;45.642;13.756;2022-09-16T12:05:26;2.38;;;0.90;;
35646;SDS011;28680;45.642;13.756;2022-09-16T12:10:51;1.60;;;0.90;;
35646;SDS011;28680;45.642;13.756;2022-09-16T12:13:51;2.47;;;0.82;;
35646;SDS011;28680;45.642;13.756;2022-09-16T12:16:46;3.28;;;1.00;;
35646;SDS011;28680;45.642;13.756;2022-09-16T12:19:15;3.53;;;0.98;;
35646;SDS011;28680;45.642;13.756;2022-09-16T12:22:14;4.93;;;1.20;;
35646;SDS011;28680;45.642;13.756;2022-09-16T12:25:08;2.42;;;0.88;;
35646;SDS011;28680;45.642;13.756;2022-09-16T12:28:01;1.73;;;0.73;;
35646;SDS011;28680;45.642;13.756;2022-09-16T12:30:48;3.05;;;0.80;;
35646;SDS011;28680;45.642;13.756;2022-09-16T12:33:43;4.32;;;0.90;;
35646;SDS011;28680;45.642;13.756;2022-09-16T12:36:54;1.92;;;0.68;;
35646;SDS011;28680;45.642;13.756;2022-09-16T12:39:48;2.28;;;0.70;;
35646;SDS011;28680;45.642;13.756;2022-09-16T12:57:33;2.53;;;0.60;;
35646;SDS011;28680;45.642;13.756;2022-09-16T13:00:35;3.58;;;0.75;;
35646;SDS011;28680;45.642;13.756;2022-09-16T13:03:11;6.07;;;1.40;;
35646;SDS011;28680;45.642;13.756;2022-09-16T13:05:45;1.55;;;0.60;;
35646;SDS011;28680;45.642;13.756;2022-09-16T13:08:20;1.70;;;0.80;;
35646;SDS011;28680;45.642;13.756;2022-09-16T13:13:32;3.28;;;0.70;;
35646;SDS011;28680;45.642;13.756;2022-09-16T13:16:07;2.35;;;1.00;;
35646;SDS011;28680;45.642;13.756;2022-09-16T13:26:55;1.50;;;0.60;;
35646;SDS011;28680;45.642;13.756;2022-09-16T13:38:10;3.60;;;0.85;;
35646;SDS011;28680;45.642;13.756;2022-09-16T13:41:01;1.65;;;0.90;;
35646;SDS011;28680;45.642;13.756;2022-09-16T13:43:31;1.90;;;0.73;;
35646;SDS011;28680;45.642;13.756;2022-09-16T13:46:13;3.35;;;0.77;;
35646;SDS011;28680;45.642;13.756;2022-09-16T13:49:11;1.70;;;0.80;;
35646;SDS011;28680;45.642;13.756;2022-09-16T13:51:51;3.85;;;0.90;;
35646;SDS011;28680;45.642;13.756;2022-09-16T13:54:27;2.30;;;0.80;;
35646;SDS011;28680;45.642;13.756;2022-09-16T14:00:35;3.67;;;1.00;;
35646;SDS011;28680;45.642;13.756;2022-09-16T14:03:45;2.83;;;0.98;;
35646;SDS011;28680;45.642;13.756;2022-09-16T14:09:50;2.50;;;0.70;;
35646;SDS011;28680;45.642;13.756;2022-09-16T14:12:35;2.58;;;0.77;;
35646;SDS011;28680;45.642;13.756;2022-09-16T14:15:11;1.27;;;0.65;;
35646;SDS011;28680;45.642;13.756;2022-09-16T14:17:43;4.75;;;0.68;;
35646;SDS011;28680;45.642;13.756;2022-09-16T14:20:14;1.48;;;0.60;;
35646;SDS011;28680;45.642;13.756;2022-09-16T14:25:29;1.02;;;0.45;;
35646;SDS011;28680;45.642;13.756;2022-09-16T14:28:09;2.95;;;0.63;;
35646;SDS011;28680;45.642;13.756;2022-09-16T14:31:07;0.90;;;0.40;;
35646;SDS011;28680;45.642;13.756;2022-09-16T14:33:43;1.30;;;0.57;;
35646;SDS011;28680;45.642;13.756;2022-09-16T14:36:25;2.15;;;0.40;;
35646;SDS011;28680;45.642;13.756;2022-09-16T14:39:01;1.38;;;0.30;;
35646;SDS011;28680;45.642;13.756;2022-09-16T14:41:36;2.15;;;0.40;;
35646;SDS011;28680;45.642;13.756;2022-09-16T14:46:57;0.30;;;0.30;;
35646;SDS011;28680;45.642;13.756;2022-09-16T14:49:36;2.92;;;0.40;;
35646;SDS011;28680;45.642;13.756;2022-09-16T14:52:03;0.80;;;0.50;;
35646;SDS011;28680;45.642;13.756;2022-09-16T14:54:29;0.57;;;0.30;;
35646;SDS011;28680;45.642;13.756;2022-09-16T14:57:14;1.67;;;0.32;;
35646;SDS011;28680;45.642;13.756;2022-09-16T14:59:48;2.88;;;0.65;;
35646;SDS011;28680;45.642;13.756;2022-09-16T15:11:10;1.05;;;0.40;;
35646;SDS011;28680;45.642;13.756;2022-09-16T15:13:38;2.43;;;0.70;;
35646;SDS011;28680;45.642;13.756;2022-09-16T15:18:35;0.93;;;0.40;;
35646;SDS011;28680;45.642;13.756;2022-09-16T15:21:08;3.17;;;0.80;;
35646;SDS011;28680;45.642;13.756;2022-09-16T15:23:48;2.65;;;0.55;;
35646;SDS011;28680;45.642;13.756;2022-09-16T15:26:18;1.80;;;0.80;;
35646;SDS011;28680;45.642;13.756;2022-09-16T15:28:51;1.20;;;0.60;;
35646;SDS011;28680;45.642;13.756;2022-09-16T15:31:27;1.90;;;0.70;;
35646;SDS011;28680;45.642;13.756;2022-09-16T15:36:47;1.08;;;0.35;;
35646;SDS011;28680;45.642;13.756;2022-09-16T15:39:26;0.73;;;0.40;;
35646;SDS011;28680;45.642;13.756;2022-09-16T15:44:55;1.10;;;0.50;;
35646;SDS011;28680;45.642;13.756;2022-09-16T15:50:06;0.95;;;0.60;;
35646;SDS011;28680;45.642;13.756;2022-09-16T15:55:35;3.08;;;0.77;;
35646;SDS011;28680;45.642;13.756;2022-09-16T15:58:20;2.00;;;0.73;;
35646;SDS011;28680;45.642;13.756;2022-09-16T16:03:36;1.73;;;0.50;;
35646;SDS011;28680;45.642;13.756;2022-09-16T16:14:22;0.70;;;0.40;;
35646;SDS011;28680;45.642;13.756;2022-09-16T16:16:57;0.90;;;0.57;;
35646;SDS011;28680;45.642;13.756;2022-09-16T16:19:27;0.50;;;0.30;;
35646;SDS011;28680;45.642;13.756;2022-09-16T16:21:54;1.20;;;0.40;;
35646;SDS011;28680;45.642;13.756;2022-09-16T16:24:21;1.90;;;0.40;;
35646;SDS011;28680;45.642;13.756;2022-09-16T16:26:48;1.90;;;0.50;;
35646;SDS011;28680;45.642;13.756;2022-09-16T16:29:15;0.75;;;0.50;;
35646;SDS011;28680;45.642;13.756;2022-09-16T16:31:57;3.05;;;0.90;;
35646;SDS011;28680;45.642;13.756;2022-09-16T16:34:44;0.65;;;0.22;;
35646;SDS011;28680;45.642;13.756;2022-09-16T16:37:14;1.00;;;0.50;;
35646;SDS011;28680;45.642;13.756;2022-09-16T16:39:42;1.70;;;0.52;;
35646;SDS011;28680;45.642;13.756;2022-09-16T16:42:11;6.15;;;3.58;;
35646;SDS011;28680;45.642;13.756;2022-09-16T16:44:39;0.95;;;0.70;;
35646;SDS011;28680;45.642;13.756;2022-09-16T16:47:06;0.98;;;0.55;;
35646;SDS011;28680;45.642;13.756;2022-09-16T16:49:33;0.60;;;0.50;;
35646;SDS011;28680;45.642;13.756;2022-09-16T16:52:00;2.17;;;0.80;;
35646;SDS011;28680;45.642;13.756;2022-09-16T16:54:27;1.30;;;0.60;;
35646;SDS011;28680;45.642;13.756;2022-09-16T16:56:54;3.08;;;0.88;;
35646;SDS011;28680;45.642;13.756;2022-09-16T16:59:20;1.55;;;0.63;;
35646;SDS011;28680;45.642;13.756;2022-09-16T17:01:49;2.53;;;0.80;;
35646;SDS011;28680;45.642;13.756;2022-09-16T17:04:17;2.90;;;0.77;;
35646;SDS011;28680;45.642;13.756;2022-09-16T17:06:43;2.70;;;0.70;;
35646;SDS011;28680;45.642;13.756;2022-09-16T17:09:10;1.42;;;0.50;;
35646;SDS011;28680;45.642;13.756;2022-09-16T17:11:37;1.77;;;0.55;;
35646;SDS011;28680;45.642;13.756;2022-09-16T17:14:26;1.98;;;0.50;;
35646;SDS011;28680;45.642;13.756;2022-09-16T17:16:58;1.70;;;0.60;;
35646;SDS011;28680;45.642;13.756;2022-09-16T17:19:26;2.00;;;0.77;;
35646;SDS011;28680;45.642;13.756;2022-09-16T17:21:55;1.63;;;0.80;;
35646;SDS011;28680;45.642;13.756;2022-09-16T17:53:11;0.63;;;0.40;;
35646;SDS011;28680;45.642;13.756;2022-09-16T17:55:37;2.67;;;0.45;;
35646;SDS011;28680;45.642;13.756;2022-09-16T17:58:03;1.10;;;0.50;;
35646;SDS011;28680;45.642;13.756;2022-09-16T18:00:29;2.42;;;0.50;;
35646;SDS011;28680;45.642;13.756;2022-09-16T18:02:55;2.80;;;0.50;;
35646;SDS011;28680;45.642;13.756;2022-09-16T18:05:21;2.20;;;0.50;;
35646;SDS011;28680;45.642;13.756;2022-09-16T18:07:47;0.68;;;0.50;;
35646;SDS011;28680;45.642;13.756;2022-09-16T18:10:13;2.17;;;0.60;;
35646;SDS011;28680;45.642;13.756;2022-09-16T18:12:42;1.73;;;0.60;;
35646;SDS011;28680;45.642;13.756;2022-09-16T18:15:08;2.33;;;0.50;;
35646;SDS011;28680;45.642;13.756;2022-09-16T18:17:34;1.33;;;0.40;;
35646;SDS011;28680;45.642;13.756;2022-09-16T18:20:01;2.25;;;0.50;;
35646;SDS011;28680;45.642;13.756;2022-09-16T18:22:30;1.15;;;0.70;;
35646;SDS011;28680;45.642;13.756;2022-09-16T18:24:56;1.05;;;0.50;;
35646;SDS011;28680;45.642;13.756;2022-09-16T18:27:23;1.90;;;0.70;;
35646;SDS011;28680;45.642;13.756;2022-09-16T18:29:49;1.83;;;0.70;;
35646;SDS011;28680;45.642;13.756;2022-09-16T18:32:19;11.05;;;1.80;;
35646;SDS011;28680;45.642;13.756;2022-09-16T19:29:21;0.47;;;0.32;;
35646;SDS011;28680;45.642;13.756;2022-09-16T19:32:21;0.88;;;0.20;;
35646;SDS011;28680;45.642;13.756;2022-09-16T20:05:23;0.20;;;0.20;;
35646;SDS011;28680;45.642;13.756;2022-09-16T20:32:13;0.70;;;0.20;;
35646;SDS011;28680;45.642;13.756;2022-09-16T20:51:03;0.30;;;0.20;;
35646;SDS011;28680;45.642;13.756;2022-09-16T20:54:12;0.20;;;0.20;;
35646;SDS011;28680;45.642;13.756;2022-09-16T20:56:40;0.20;;;0.20;;
35646;SDS011;28680;45.642;13.756;2022-09-16T21:53:13;1.40;;;0.57;;
35646;SDS011;28680;45.642;13.756;2022-09-16T22:03:38;1.35;;;0.60;;
35646;SDS011;28680;45.642;13.756;2022-09-16T22:09:11;0.60;;;0.50;;
35646;SDS011;28680;45.642;13.756;2022-09-16T22:11:37;0.68;;;0.40;;
35646;SDS011;28680;45.642;13.756;2022-09-16T22:23:06;0.75;;;0.45;;
35646;SDS011;28680;45.642;13.756;2022-09-16T22:25:40;1.13;;;0.60;;
35646;SDS011;28680;45.642;13.756;2022-09-16T22:28:12;0.95;;;0.40;;
35646;SDS011;28680;45.642;13.756;2022-09-16T22:36:51;1.20;;;0.38;;
35646;SDS011;28680;45.642;13.756;2022-09-16T22:39:29;0.90;;;0.50;;
35646;SDS011;28680;45.642;13.756;2022-09-16T22:58:30;0.57;;;0.28;;
35646;SDS011;28680;45.642;13.756;2022-09-16T23:01:13;0.30;;;0.30;;
35646;SDS011;28680;45.642;13.756;2022-09-16T23:03:54;0.20;;;0.20;;
35646;SDS011;28680;45.642;13.756;2022-09-16T23:06:29;0.50;;;0.30;;
35646;SDS011;28680;45.642;13.756;2022-09-16T23:08:56;0.30;;;0.25;;
35646;SDS011;28680;45.642;13.756;2022-09-16T23:11:23;0.82;;;0.35;;
35646;SDS011;28680;45.642;13.756;2022-09-16T23:13:55;0.35;;;0.22;;
35646;SDS011;28680;45.642;13.756;2022-09-16T23:16:25;0.20;;;0.20;;
35646;SDS011;28680;45.642;13.756;2022-09-16T23:18:54;0.50;;;0.30;;
35646;SDS011;28680;45.642;13.756;2022-09-16T23:21:24;0.30;;;0.30;;